sensor_id;sensor_type;location;lat;lon;timestamp;pressure;altitude;pressure_sealevel;temperature
40199;BMP280;25906;43.536;26.068;2023-03-03T00:01:19;98875.91;;;19.76
40199;BMP280;25906;43.536;26.068;2023-03-03T00:04:05;98882.25;;;19.64
40199;BMP280;25906;43.536;26.068;2023-03-03T00:06:50;98876.88;;;18.83
40199;BMP280;25906;43.536;26.068;2023-03-03T00:09:36;98873.97;;;18.79
40199;BMP280;25906;43.536;26.068;2023-03-03T00:12:25;98869.09;;;18.78
40199;BMP280;25906;43.536;26.068;2023-03-03T00:15:20;98866.03;;;18.54
40199;BMP280;25906;43.536;26.068;2023-03-03T00:18:17;98858.50;;;18.24
40199;BMP280;25906;43.536;26.068;2023-03-03T00:21:23;98854.75;;;18.79
40199;BMP280;25906;43.536;26.068;2023-03-03T00:27:01;98848.19;;;18.38
40199;BMP280;25906;43.536;26.068;2023-03-03T00:29:55;98847.47;;;18.38
40199;BMP280;25906;43.536;26.068;2023-03-03T00:32:43;98841.78;;;18.80
40199;BMP280;25906;43.536;26.068;2023-03-03T00:35:32;98837.44;;;17.67
40199;BMP280;25906;43.536;26.068;2023-03-03T00:38:19;98839.78;;;18.34
40199;BMP280;25906;43.536;26.068;2023-03-03T00:41:34;98836.69;;;18.26
40199;BMP280;25906;43.536;26.068;2023-03-03T00:47:34;98831.28;;;17.82
40199;BMP280;25906;43.536;26.068;2023-03-03T00:53:14;98819.81;;;18.32
40199;BMP280;25906;43.536;26.068;2023-03-03T00:56:01;98819.34;;;17.91
40199;BMP280;25906;43.536;26.068;2023-03-03T00:58:46;98816.38;;;17.57
40199;BMP280;25906;43.536;26.068;2023-03-03T01:01:32;98803.25;;;17.40
40199;BMP280;25906;43.536;26.068;2023-03-03T01:04:17;98809.56;;;17.29
40199;BMP280;25906;43.536;26.068;2023-03-03T01:07:03;98805.72;;;17.21
40199;BMP280;25906;43.536;26.068;2023-03-03T01:09:48;98800.84;;;17.76
40199;BMP280;25906;43.536;26.068;2023-03-03T01:12:34;98803.97;;;17.40
40199;BMP280;25906;43.536;26.068;2023-03-03T01:15:19;98801.47;;;17.31
40199;BMP280;25906;43.536;26.068;2023-03-03T01:18:06;98798.22;;;16.92
40199;BMP280;25906;43.536;26.068;2023-03-03T01:20:51;98792.00;;;17.05
40199;BMP280;25906;43.536;26.068;2023-03-03T01:23:37;98800.50;;;17.40
40199;BMP280;25906;43.536;26.068;2023-03-03T01:26:22;98789.59;;;16.98
40199;BMP280;25906;43.536;26.068;2023-03-03T01:29:08;98793.94;;;17.45
40199;BMP280;25906;43.536;26.068;2023-03-03T01:31:53;98802.06;;;18.02
40199;BMP280;25906;43.536;26.068;2023-03-03T01:34:39;98791.25;;;17.91
40199;BMP280;25906;43.536;26.068;2023-03-03T01:37:25;98791.38;;;18.08
40199;BMP280;25906;43.536;26.068;2023-03-03T01:40:14;98790.28;;;18.00
40199;BMP280;25906;43.536;26.068;2023-03-03T01:43:00;98786.09;;;17.68
40199;BMP280;25906;43.536;26.068;2023-03-03T01:48:38;98779.47;;;17.88
40199;BMP280;25906;43.536;26.068;2023-03-03T01:51:28;98779.06;;;17.78
40199;BMP280;25906;43.536;26.068;2023-03-03T01:54:28;98779.84;;;17.65
40199;BMP280;25906;43.536;26.068;2023-03-03T01:57:20;98767.31;;;17.32
40199;BMP280;25906;43.536;26.068;2023-03-03T02:00:09;98773.28;;;17.57
40199;BMP280;25906;43.536;26.068;2023-03-03T02:02:55;98761.00;;;17.89
40199;BMP280;25906;43.536;26.068;2023-03-03T02:05:40;98759.50;;;17.26
40199;BMP280;25906;43.536;26.068;2023-03-03T02:08:30;98762.75;;;17.52
40199;BMP280;25906;43.536;26.068;2023-03-03T02:11:21;98762.84;;;17.54
40199;BMP280;25906;43.536;26.068;2023-03-03T02:14:06;98763.72;;;17.43
40199;BMP280;25906;43.536;26.068;2023-03-03T02:16:52;98764.75;;;17.36
40199;BMP280;25906;43.536;26.068;2023-03-03T02:22:48;98772.25;;;17.95
40199;BMP280;25906;43.536;26.068;2023-03-03T02:25:50;98767.31;;;17.91
40199;BMP280;25906;43.536;26.068;2023-03-03T02:28:38;98762.88;;;17.84
40199;BMP280;25906;43.536;26.068;2023-03-03T02:31:26;98767.25;;;17.45
40199;BMP280;25906;43.536;26.068;2023-03-03T02:34:13;98758.81;;;17.26
40199;BMP280;25906;43.536;26.068;2023-03-03T02:36:59;98766.69;;;17.33
40199;BMP280;25906;43.536;26.068;2023-03-03T02:39:44;98766.81;;;16.93
40199;BMP280;25906;43.536;26.068;2023-03-03T02:42:30;98755.97;;;16.82
40199;BMP280;25906;43.536;26.068;2023-03-03T02:45:16;98757.13;;;16.77
40199;BMP280;25906;43.536;26.068;2023-03-03T02:48:01;98763.09;;;17.16
40199;BMP280;25906;43.536;26.068;2023-03-03T02:50:46;98758.59;;;17.07
40199;BMP280;25906;43.536;26.068;2023-03-03T02:53:32;98755.66;;;17.47
40199;BMP280;25906;43.536;26.068;2023-03-03T02:56:17;98760.50;;;17.04
40199;BMP280;25906;43.536;26.068;2023-03-03T02:59:03;98755.47;;;17.27
40199;BMP280;25906;43.536;26.068;2023-03-03T03:01:50;98746.44;;;16.96
40199;BMP280;25906;43.536;26.068;2023-03-03T03:04:36;98749.81;;;17.23
40199;BMP280;25906;43.536;26.068;2023-03-03T03:07:21;98754.50;;;17.08
40199;BMP280;25906;43.536;26.068;2023-03-03T03:10:07;98745.94;;;17.28
40199;BMP280;25906;43.536;26.068;2023-03-03T03:12:52;98748.47;;;16.96
40199;BMP280;25906;43.536;26.068;2023-03-03T03:15:38;98752.88;;;16.61
40199;BMP280;25906;43.536;26.068;2023-03-03T03:18:23;98744.91;;;16.93
40199;BMP280;25906;43.536;26.068;2023-03-03T03:21:11;98743.56;;;16.52
40199;BMP280;25906;43.536;26.068;2023-03-03T03:23:57;98738.41;;;17.29
40199;BMP280;25906;43.536;26.068;2023-03-03T03:26:42;98755.50;;;16.85
40199;BMP280;25906;43.536;26.068;2023-03-03T03:29:28;98755.78;;;16.65
40199;BMP280;25906;43.536;26.068;2023-03-03T03:32:13;98749.16;;;16.54
40199;BMP280;25906;43.536;26.068;2023-03-03T03:34:59;98740.00;;;16.90
40199;BMP280;25906;43.536;26.068;2023-03-03T03:37:44;98741.84;;;16.72
40199;BMP280;25906;43.536;26.068;2023-03-03T03:40:29;98740.75;;;16.24
40199;BMP280;25906;43.536;26.068;2023-03-03T03:43:15;98737.31;;;16.23
40199;BMP280;25906;43.536;26.068;2023-03-03T03:46:00;98737.13;;;16.46
40199;BMP280;25906;43.536;26.068;2023-03-03T03:48:46;98735.47;;;15.63
40199;BMP280;25906;43.536;26.068;2023-03-03T03:51:31;98733.47;;;16.41
40199;BMP280;25906;43.536;26.068;2023-03-03T03:54:18;98740.44;;;17.00
40199;BMP280;25906;43.536;26.068;2023-03-03T03:57:03;98737.94;;;16.90
40199;BMP280;25906;43.536;26.068;2023-03-03T03:59:49;98738.03;;;16.64
40199;BMP280;25906;43.536;26.068;2023-03-03T04:02:34;98736.66;;;16.65
40199;BMP280;25906;43.536;26.068;2023-03-03T04:05:20;98733.16;;;17.04
40199;BMP280;25906;43.536;26.068;2023-03-03T04:08:06;98732.41;;;16.75
40199;BMP280;25906;43.536;26.068;2023-03-03T04:10:51;98725.34;;;16.57
40199;BMP280;25906;43.536;26.068;2023-03-03T04:13:37;98736.28;;;16.30
40199;BMP280;25906;43.536;26.068;2023-03-03T04:16:22;98728.94;;;16.46
40199;BMP280;25906;43.536;26.068;2023-03-03T04:19:08;98735.56;;;16.56
40199;BMP280;25906;43.536;26.068;2023-03-03T04:21:53;98747.59;;;16.51
40199;BMP280;25906;43.536;26.068;2023-03-03T04:24:39;98747.22;;;16.57
40199;BMP280;25906;43.536;26.068;2023-03-03T04:27:25;98744.50;;;16.43
40199;BMP280;25906;43.536;26.068;2023-03-03T04:30:12;98749.53;;;16.49
40199;BMP280;25906;43.536;26.068;2023-03-03T04:32:57;98737.19;;;16.61
40199;BMP280;25906;43.536;26.068;2023-03-03T04:35:43;98743.91;;;16.32
40199;BMP280;25906;43.536;26.068;2023-03-03T04:38:28;98732.81;;;15.90
40199;BMP280;25906;43.536;26.068;2023-03-03T04:41:14;98733.16;;;16.22
40199;BMP280;25906;43.536;26.068;2023-03-03T04:44:00;98730.19;;;15.92
40199;BMP280;25906;43.536;26.068;2023-03-03T04:46:45;98733.88;;;16.23
40199;BMP280;25906;43.536;26.068;2023-03-03T04:49:30;98732.97;;;16.18
40199;BMP280;25906;43.536;26.068;2023-03-03T04:52:16;98730.72;;;16.55
40199;BMP280;25906;43.536;26.068;2023-03-03T04:55:02;98736.41;;;16.32
40199;BMP280;25906;43.536;26.068;2023-03-03T04:57:47;98720.97;;;15.85
40199;BMP280;25906;43.536;26.068;2023-03-03T05:00:33;98720.84;;;15.70
40199;BMP280;25906;43.536;26.068;2023-03-03T05:03:18;98724.41;;;15.72
40199;BMP280;25906;43.536;26.068;2023-03-03T05:06:04;98720.97;;;15.85
40199;BMP280;25906;43.536;26.068;2023-03-03T05:08:49;98719.78;;;15.50
40199;BMP280;25906;43.536;26.068;2023-03-03T05:11:35;98724.06;;;16.18
40199;BMP280;25906;43.536;26.068;2023-03-03T05:14:20;98724.16;;;16.06
40199;BMP280;25906;43.536;26.068;2023-03-03T05:17:06;98725.22;;;16.01
40199;BMP280;25906;43.536;26.068;2023-03-03T05:19:51;98728.88;;;16.06
40199;BMP280;25906;43.536;26.068;2023-03-03T05:22:37;98732.84;;;16.03
40199;BMP280;25906;43.536;26.068;2023-03-03T05:25:22;98729.94;;;16.26
40199;BMP280;25906;43.536;26.068;2023-03-03T05:28:08;98725.59;;;15.69
40199;BMP280;25906;43.536;26.068;2023-03-03T05:30:54;98731.78;;;15.83
40199;BMP280;25906;43.536;26.068;2023-03-03T05:33:39;98725.59;;;15.69
40199;BMP280;25906;43.536;26.068;2023-03-03T05:36:25;98739.53;;;16.13
40199;BMP280;25906;43.536;26.068;2023-03-03T05:39:10;98743.47;;;16.10
40199;BMP280;25906;43.536;26.068;2023-03-03T05:41:56;98745.38;;;15.95
40199;BMP280;25906;43.536;26.068;2023-03-03T05:44:41;98754.81;;;16.32
40199;BMP280;25906;43.536;26.068;2023-03-03T05:47:26;98751.06;;;16.25
40199;BMP280;25906;43.536;26.068;2023-03-03T05:50:13;98749.44;;;16.20
40199;BMP280;25906;43.536;26.068;2023-03-03T05:52:58;98747.50;;;15.96
40199;BMP280;25906;43.536;26.068;2023-03-03T05:55:44;98759.81;;;15.97
40199;BMP280;25906;43.536;26.068;2023-03-03T05:58:29;98761.16;;;15.96
40199;BMP280;25906;43.536;26.068;2023-03-03T06:01:15;98759.56;;;16.18
40199;BMP280;25906;43.536;26.068;2023-03-03T06:04:00;98754.97;;;15.95
40199;BMP280;25906;43.536;26.068;2023-03-03T06:06:45;98761.00;;;15.81
40199;BMP280;25906;43.536;26.068;2023-03-03T06:09:32;98748.69;;;15.93
40199;BMP280;25906;43.536;26.068;2023-03-03T06:12:17;98757.09;;;15.97
40199;BMP280;25906;43.536;26.068;2023-03-03T06:15:05;98757.41;;;15.65
40199;BMP280;25906;43.536;26.068;2023-03-03T06:17:50;98750.25;;;15.71
40199;BMP280;25906;43.536;26.068;2023-03-03T06:20:36;98755.72;;;15.71
40199;BMP280;25906;43.536;26.068;2023-03-03T06:23:22;98752.31;;;15.84
40199;BMP280;25906;43.536;26.068;2023-03-03T06:26:08;98757.56;;;16.18
40199;BMP280;25906;43.536;26.068;2023-03-03T06:28:53;98757.34;;;16.14
40199;BMP280;25906;43.536;26.068;2023-03-03T06:31:39;98754.09;;;16.18
40199;BMP280;25906;43.536;26.068;2023-03-03T06:34:24;98757.38;;;16.41
40199;BMP280;25906;43.536;26.068;2023-03-03T06:37:10;98752.78;;;16.19
40199;BMP280;25906;43.536;26.068;2023-03-03T06:39:55;98748.75;;;15.68
40199;BMP280;25906;43.536;26.068;2023-03-03T06:42:40;98759.28;;;16.38
40199;BMP280;25906;43.536;26.068;2023-03-03T06:45:26;98758.03;;;15.63
40199;BMP280;25906;43.536;26.068;2023-03-03T06:48:11;98749.13;;;16.14
40199;BMP280;25906;43.536;26.068;2023-03-03T06:50:59;98747.59;;;16.78
40199;BMP280;25906;43.536;26.068;2023-03-03T06:53:47;98757.56;;;16.45
40199;BMP280;25906;43.536;26.068;2023-03-03T06:56:35;98742.06;;;16.36
40199;BMP280;25906;43.536;26.068;2023-03-03T06:59:21;98750.34;;;16.51
40199;BMP280;25906;43.536;26.068;2023-03-03T07:02:14;98743.28;;;16.20
40199;BMP280;25906;43.536;26.068;2023-03-03T07:05:00;98752.34;;;15.97
40199;BMP280;25906;43.536;26.068;2023-03-03T07:07:45;98747.31;;;16.05
40199;BMP280;25906;43.536;26.068;2023-03-03T07:10:31;98737.78;;;16.06
40199;BMP280;25906;43.536;26.068;2023-03-03T07:13:21;98743.16;;;16.18
40199;BMP280;25906;43.536;26.068;2023-03-03T07:16:11;98734.69;;;15.74
40199;BMP280;25906;43.536;26.068;2023-03-03T07:19:00;98752.69;;;16.57
40199;BMP280;25906;43.536;26.068;2023-03-03T07:21:47;98748.94;;;16.37
40199;BMP280;25906;43.536;26.068;2023-03-03T07:24:36;98734.94;;;15.53
40199;BMP280;25906;43.536;26.068;2023-03-03T07:27:26;98741.81;;;15.92
40199;BMP280;25906;43.536;26.068;2023-03-03T07:30:25;98735.91;;;15.46
40199;BMP280;25906;43.536;26.068;2023-03-03T07:33:24;98732.53;;;15.97
40199;BMP280;25906;43.536;26.068;2023-03-03T07:36:40;98739.84;;;16.59
40199;BMP280;25906;43.536;26.068;2023-03-03T07:39:37;98733.91;;;16.78
40199;BMP280;25906;43.536;26.068;2023-03-03T07:45:33;98733.31;;;16.80
40199;BMP280;25906;43.536;26.068;2023-03-03T07:48:28;98744.28;;;16.66
40199;BMP280;25906;43.536;26.068;2023-03-03T07:51:31;98732.13;;;16.56
40199;BMP280;25906;43.536;26.068;2023-03-03T07:57:40;98732.91;;;16.72
40199;BMP280;25906;43.536;26.068;2023-03-03T08:03:18;98735.28;;;16.37
40199;BMP280;25906;43.536;26.068;2023-03-03T08:06:41;98740.56;;;16.88
40199;BMP280;25906;43.536;26.068;2023-03-03T08:09:35;98734.06;;;16.53
40199;BMP280;25906;43.536;26.068;2023-03-03T08:12:30;98724.22;;;15.82
40199;BMP280;25906;43.536;26.068;2023-03-03T08:15:27;98734.69;;;16.38
40199;BMP280;25906;43.536;26.068;2023-03-03T08:18:24;98722.41;;;16.66
40199;BMP280;25906;43.536;26.068;2023-03-03T08:21:22;98729.56;;;16.60
40199;BMP280;25906;43.536;26.068;2023-03-03T08:24:08;98722.63;;;16.57
40199;BMP280;25906;43.536;26.068;2023-03-03T08:26:53;98716.94;;;16.66
40199;BMP280;25906;43.536;26.068;2023-03-03T08:29:38;98711.88;;;16.61
40199;BMP280;25906;43.536;26.068;2023-03-03T08:32:24;98711.97;;;16.76
40199;BMP280;25906;43.536;26.068;2023-03-03T08:35:09;98705.81;;;16.49
40199;BMP280;25906;43.536;26.068;2023-03-03T08:37:55;98706.22;;;16.03
40199;BMP280;25906;43.536;26.068;2023-03-03T08:40:40;98707.44;;;16.54
40199;BMP280;25906;43.536;26.068;2023-03-03T08:43:26;98698.03;;;16.43
40199;BMP280;25906;43.536;26.068;2023-03-03T08:46:12;98706.81;;;16.55
40199;BMP280;25906;43.536;26.068;2023-03-03T08:48:58;98701.25;;;16.67
40199;BMP280;25906;43.536;26.068;2023-03-03T08:51:43;98694.09;;;16.88
40199;BMP280;25906;43.536;26.068;2023-03-03T08:54:29;98684.50;;;16.74
40199;BMP280;25906;43.536;26.068;2023-03-03T08:57:14;98684.28;;;16.83
40199;BMP280;25906;43.536;26.068;2023-03-03T09:00:00;98691.66;;;16.39
40199;BMP280;25906;43.536;26.068;2023-03-03T09:02:45;98694.50;;;16.54
40199;BMP280;25906;43.536;26.068;2023-03-03T09:05:32;98692.84;;;16.63
40199;BMP280;25906;43.536;26.068;2023-03-03T09:08:18;98696.50;;;16.67
40199;BMP280;25906;43.536;26.068;2023-03-03T09:11:13;98688.34;;;16.00
40199;BMP280;25906;43.536;26.068;2023-03-03T09:14:09;98684.56;;;15.94
40199;BMP280;25906;43.536;26.068;2023-03-03T09:16:55;98680.22;;;16.16
40199;BMP280;25906;43.536;26.068;2023-03-03T09:19:41;98688.16;;;16.23
40199;BMP280;25906;43.536;26.068;2023-03-03T09:22:27;98683.97;;;16.22
40199;BMP280;25906;43.536;26.068;2023-03-03T09:28:25;98681.06;;;16.32
40199;BMP280;25906;43.536;26.068;2023-03-03T09:31:38;98679.97;;;15.58
40199;BMP280;25906;43.536;26.068;2023-03-03T09:34:26;98685.09;;;16.04
40199;BMP280;25906;43.536;26.068;2023-03-03T09:37:22;98694.28;;;15.97
40199;BMP280;25906;43.536;26.068;2023-03-03T09:43:41;98688.44;;;16.29
40199;BMP280;25906;43.536;26.068;2023-03-03T09:49:33;98690.72;;;16.48
40199;BMP280;25906;43.536;26.068;2023-03-03T10:05:09;98670.81;;;15.92
40199;BMP280;25906;43.536;26.068;2023-03-03T10:13:46;98652.97;;;16.58
40199;BMP280;25906;43.536;26.068;2023-03-03T10:20:20;98652.47;;;16.48
40199;BMP280;25906;43.536;26.068;2023-03-03T10:23:24;98640.56;;;16.70
40199;BMP280;25906;43.536;26.068;2023-03-03T10:33:15;98633.56;;;16.25
40199;BMP280;25906;43.536;26.068;2023-03-03T10:45:27;98608.19;;;16.23
40199;BMP280;25906;43.536;26.068;2023-03-03T10:48:23;98602.50;;;16.32
40199;BMP280;25906;43.536;26.068;2023-03-03T11:00:24;98593.31;;;16.83
40199;BMP280;25906;43.536;26.068;2023-03-03T11:03:52;98587.03;;;16.65
40199;BMP280;25906;43.536;26.068;2023-03-03T11:19:04;98581.38;;;16.19
40199;BMP280;25906;43.536;26.068;2023-03-03T11:24:54;98586.34;;;16.51
40199;BMP280;25906;43.536;26.068;2023-03-03T11:36:46;98581.19;;;16.15
40199;BMP280;25906;43.536;26.068;2023-03-03T11:39:33;98575.56;;;15.71
40199;BMP280;25906;43.536;26.068;2023-03-03T11:42:31;98569.97;;;15.43
40199;BMP280;25906;43.536;26.068;2023-03-03T11:45:24;98564.22;;;15.90
40199;BMP280;25906;43.536;26.068;2023-03-03T11:51:14;98558.91;;;15.14
40199;BMP280;25906;43.536;26.068;2023-03-03T11:54:32;98562.47;;;15.16
40199;BMP280;25906;43.536;26.068;2023-03-03T12:00:40;98552.81;;;15.40
40199;BMP280;25906;43.536;26.068;2023-03-03T12:12:15;98554.91;;;16.08
40199;BMP280;25906;43.536;26.068;2023-03-03T12:15:12;98554.84;;;15.66
40199;BMP280;25906;43.536;26.068;2023-03-03T12:33:09;98548.13;;;14.53
40199;BMP280;25906;43.536;26.068;2023-03-03T12:36:08;98551.13;;;15.08
40199;BMP280;25906;43.536;26.068;2023-03-03T12:48:06;98551.06;;;15.33
40199;BMP280;25906;43.536;26.068;2023-03-03T12:57:44;98538.75;;;14.56
40199;BMP280;25906;43.536;26.068;2023-03-03T13:00:51;98540.06;;;15.31
40199;BMP280;25906;43.536;26.068;2023-03-03T13:03:57;98535.78;;;14.52
40199;BMP280;25906;43.536;26.068;2023-03-03T13:07:15;98540.16;;;15.33
40199;BMP280;25906;43.536;26.068;2023-03-03T13:10:11;98540.78;;;15.58
40199;BMP280;25906;43.536;26.068;2023-03-03T13:16:13;98549.38;;;15.66
40199;BMP280;25906;43.536;26.068;2023-03-03T13:19:07;98551.41;;;15.66
40199;BMP280;25906;43.536;26.068;2023-03-03T13:22:24;98547.38;;;15.02
40199;BMP280;25906;43.536;26.068;2023-03-03T13:31:06;98543.25;;;14.52
40199;BMP280;25906;43.536;26.068;2023-03-03T13:33:54;98546.50;;;14.73
40199;BMP280;25906;43.536;26.068;2023-03-03T13:36:49;98546.00;;;14.76
40199;BMP280;25906;43.536;26.068;2023-03-03T13:39:40;98547.75;;;14.59
40199;BMP280;25906;43.536;26.068;2023-03-03T13:48:36;98540.59;;;15.03
40199;BMP280;25906;43.536;26.068;2023-03-03T13:55:04;98542.19;;;15.46
40199;BMP280;25906;43.536;26.068;2023-03-03T14:00:55;98523.34;;;14.24
40199;BMP280;25906;43.536;26.068;2023-03-03T14:06:54;98530.34;;;15.42
40199;BMP280;25906;43.536;26.068;2023-03-03T14:09:46;98524.84;;;15.40
40199;BMP280;25906;43.536;26.068;2023-03-03T14:18:58;98530.22;;;15.13
40199;BMP280;25906;43.536;26.068;2023-03-03T14:22:19;98523.47;;;14.76
40199;BMP280;25906;43.536;26.068;2023-03-03T14:25:12;98519.53;;;14.54
40199;BMP280;25906;43.536;26.068;2023-03-03T14:28:08;98519.88;;;14.60
40199;BMP280;25906;43.536;26.068;2023-03-03T14:30:56;98523.69;;;14.55
40199;BMP280;25906;43.536;26.068;2023-03-03T14:37:20;98513.06;;;14.12
40199;BMP280;25906;43.536;26.068;2023-03-03T14:40:30;98524.34;;;13.95
40199;BMP280;25906;43.536;26.068;2023-03-03T14:43:24;98522.63;;;13.76
40199;BMP280;25906;43.536;26.068;2023-03-03T14:49:28;98530.09;;;14.23
40199;BMP280;25906;43.536;26.068;2023-03-03T14:55:02;98527.44;;;13.78
40199;BMP280;25906;43.536;26.068;2023-03-03T14:58:25;98522.88;;;14.28
40199;BMP280;25906;43.536;26.068;2023-03-03T15:04:23;98532.91;;;14.62
40199;BMP280;25906;43.536;26.068;2023-03-03T15:10:10;98529.47;;;14.36
40199;BMP280;25906;43.536;26.068;2023-03-03T15:12:58;98529.59;;;13.91
40199;BMP280;25906;43.536;26.068;2023-03-03T15:24:55;98537.53;;;13.53
40199;BMP280;25906;43.536;26.068;2023-03-03T15:27:55;98539.53;;;13.98
40199;BMP280;25906;43.536;26.068;2023-03-03T15:40:34;98543.19;;;13.91
40199;BMP280;25906;43.536;26.068;2023-03-03T15:49:46;98542.50;;;13.68
40199;BMP280;25906;43.536;26.068;2023-03-03T16:04:23;98553.72;;;13.85
40199;BMP280;25906;43.536;26.068;2023-03-03T16:13:26;98566.53;;;13.05
40199;BMP280;25906;43.536;26.068;2023-03-03T16:16:59;98558.72;;;12.99
40199;BMP280;25906;43.536;26.068;2023-03-03T16:19:54;98565.97;;;13.06
40199;BMP280;25906;43.536;26.068;2023-03-03T16:32:43;98579.03;;;13.30
40199;BMP280;25906;43.536;26.068;2023-03-03T16:35:36;98574.44;;;13.44
40199;BMP280;25906;43.536;26.068;2023-03-03T16:38:31;98580.09;;;13.48
40199;BMP280;25906;43.536;26.068;2023-03-03T16:41:31;98585.34;;;13.56
40199;BMP280;25906;43.536;26.068;2023-03-03T16:56:25;98599.53;;;13.66
40199;BMP280;25906;43.536;26.068;2023-03-03T17:02:18;98600.13;;;13.64
40199;BMP280;25906;43.536;26.068;2023-03-03T17:14:51;98604.38;;;13.78
40199;BMP280;25906;43.536;26.068;2023-03-03T17:18:11;98606.91;;;13.42
40199;BMP280;25906;43.536;26.068;2023-03-03T17:20:59;98600.88;;;13.32
40199;BMP280;25906;43.536;26.068;2023-03-03T17:24:09;98602.16;;;12.88
40199;BMP280;25906;43.536;26.068;2023-03-03T17:30:25;98608.75;;;13.06
40199;BMP280;25906;43.536;26.068;2023-03-03T17:36:24;98606.06;;;12.64
40199;BMP280;25906;43.536;26.068;2023-03-03T17:45:39;98617.31;;;12.29
40199;BMP280;25906;43.536;26.068;2023-03-03T17:49:06;98622.63;;;12.27
40199;BMP280;25906;43.536;26.068;2023-03-03T18:11:14;98614.16;;;12.11
40199;BMP280;25906;43.536;26.068;2023-03-03T18:20:16;98624.78;;;12.70
40199;BMP280;25906;43.536;26.068;2023-03-03T18:26:31;98621.91;;;12.88
40199;BMP280;25906;43.536;26.068;2023-03-03T18:29:25;98632.84;;;12.79
40199;BMP280;25906;43.536;26.068;2023-03-03T18:32:20;98633.22;;;12.64
40199;BMP280;25906;43.536;26.068;2023-03-03T18:44:01;98632.91;;;12.49
40199;BMP280;25906;43.536;26.068;2023-03-03T18:47:06;98635.31;;;12.03
40199;BMP280;25906;43.536;26.068;2023-03-03T18:49:56;98644.16;;;12.34
40199;BMP280;25906;43.536;26.068;2023-03-03T18:56:00;98645.28;;;12.10
40199;BMP280;25906;43.536;26.068;2023-03-03T18:58:50;98643.50;;;12.24
40199;BMP280;25906;43.536;26.068;2023-03-03T19:01:41;98644.88;;;12.35
40199;BMP280;25906;43.536;26.068;2023-03-03T19:04:34;98651.13;;;12.37
40199;BMP280;25906;43.536;26.068;2023-03-03T19:19:16;98663.13;;;12.85
40199;BMP280;25906;43.536;26.068;2023-03-03T19:22:24;98663.44;;;12.80
40199;BMP280;25906;43.536;26.068;2023-03-03T19:31:07;98663.13;;;12.85
40199;BMP280;25906;43.536;26.068;2023-03-03T19:37:27;98669.72;;;12.31
40199;BMP280;25906;43.536;26.068;2023-03-03T19:46:58;98672.41;;;12.10
40199;BMP280;25906;43.536;26.068;2023-03-03T19:56:32;98666.09;;;12.89
40199;BMP280;25906;43.536;26.068;2023-03-03T20:08:44;98678.03;;;12.33
40199;BMP280;25906;43.536;26.068;2023-03-03T20:20:29;98682.72;;;12.63
40199;BMP280;25906;43.536;26.068;2023-03-03T20:23:22;98675.94;;;12.52
40199;BMP280;25906;43.536;26.068;2023-03-03T20:26:21;98671.47;;;12.57
40199;BMP280;25906;43.536;26.068;2023-03-03T20:29:39;98671.81;;;12.42
40199;BMP280;25906;43.536;26.068;2023-03-03T20:51:15;98665.00;;;12.62
40199;BMP280;25906;43.536;26.068;2023-03-03T21:03:41;98668.59;;;12.34
40199;BMP280;25906;43.536;26.068;2023-03-03T21:06:36;98665.19;;;11.94
40199;BMP280;25906;43.536;26.068;2023-03-03T21:12:30;98666.97;;;12.40
40199;BMP280;25906;43.536;26.068;2023-03-03T21:18:21;98666.19;;;11.98
40199;BMP280;25906;43.536;26.068;2023-03-03T21:21:08;98663.09;;;12.13
40199;BMP280;25906;43.536;26.068;2023-03-03T21:23:53;98671.00;;;12.30
40199;BMP280;25906;43.536;26.068;2023-03-03T21:29:34;98679.06;;;12.49
40199;BMP280;25906;43.536;26.068;2023-03-03T21:32:52;98682.47;;;12.29
40199;BMP280;25906;43.536;26.068;2023-03-03T21:35:56;98678.03;;;12.33
40199;BMP280;25906;43.536;26.068;2023-03-03T21:38:42;98678.38;;;12.18
40199;BMP280;25906;43.536;26.068;2023-03-03T21:47:27;98675.78;;;12.92
40199;BMP280;25906;43.536;26.068;2023-03-03T21:50:13;98673.25;;;12.43
40199;BMP280;25906;43.536;26.068;2023-03-03T21:52:58;98676.84;;;12.36
40199;BMP280;25906;43.536;26.068;2023-03-03T21:55:44;98672.94;;;12.18
40199;BMP280;25906;43.536;26.068;2023-03-03T21:58:33;98672.88;;;12.79
40199;BMP280;25906;43.536;26.068;2023-03-03T22:01:18;98678.19;;;12.26
40199;BMP280;25906;43.536;26.068;2023-03-03T22:04:04;98677.38;;;12.23
40199;BMP280;25906;43.536;26.068;2023-03-03T22:06:49;98681.09;;;12.69
40199;BMP280;25906;43.536;26.068;2023-03-03T22:09:37;98668.88;;;11.40
40199;BMP280;25906;43.536;26.068;2023-03-03T22:12:22;98666.59;;;12.25
40199;BMP280;25906;43.536;26.068;2023-03-03T22:15:08;98665.16;;;12.03
40199;BMP280;25906;43.536;26.068;2023-03-03T22:17:53;98670.50;;;11.92
40199;BMP280;25906;43.536;26.068;2023-03-03T22:20:38;98661.72;;;11.63
40199;BMP280;25906;43.536;26.068;2023-03-03T22:23:24;98660.84;;;11.70
40199;BMP280;25906;43.536;26.068;2023-03-03T22:26:09;98658.28;;;12.12
40199;BMP280;25906;43.536;26.068;2023-03-03T22:28:55;98653.69;;;11.75
40199;BMP280;25906;43.536;26.068;2023-03-03T22:31:40;98649.78;;;12.27
40199;BMP280;25906;43.536;26.068;2023-03-03T22:34:25;98647.28;;;12.10
40199;BMP280;25906;43.536;26.068;2023-03-03T22:37:11;98654.69;;;12.09
40199;BMP280;25906;43.536;26.068;2023-03-03T22:39:56;98649.69;;;12.15
40199;BMP280;25906;43.536;26.068;2023-03-03T22:42:42;98647.59;;;12.04
40199;BMP280;25906;43.536;26.068;2023-03-03T22:45:27;98646.78;;;11.25
40199;BMP280;25906;43.536;26.068;2023-03-03T22:48:12;98648.31;;;12.35
40199;BMP280;25906;43.536;26.068;2023-03-03T22:50:58;98647.78;;;12.48
40199;BMP280;25906;43.536;26.068;2023-03-03T22:53:43;98652.59;;;12.59
40199;BMP280;25906;43.536;26.068;2023-03-03T22:56:29;98653.59;;;12.54
40199;BMP280;25906;43.536;26.068;2023-03-03T22:59:14;98659.03;;;12.54
40199;BMP280;25906;43.536;26.068;2023-03-03T23:01:59;98650.22;;;12.65
40199;BMP280;25906;43.536;26.068;2023-03-03T23:04:45;98663.81;;;12.65
40199;BMP280;25906;43.536;26.068;2023-03-03T23:07:30;98669.19;;;12.53
40199;BMP280;25906;43.536;26.068;2023-03-03T23:10:16;98669.00;;;12.61
40199;BMP280;25906;43.536;26.068;2023-03-03T23:13:02;98675.28;;;12.63